createdAt,value
2022-11-14T00:01:10.612Z,60.27
2022-11-14T00:03:37.683Z,56.20
2022-11-14T00:06:08.655Z,55.73
2022-11-14T00:08:35.713Z,55.03
2022-11-14T00:11:03.008Z,54.63
2022-11-14T00:13:29.853Z,55.90
2022-11-14T00:15:57.256Z,55.13
2022-11-14T00:18:24.114Z,55.93
2022-11-14T00:20:52.900Z,56.77
2022-11-14T00:23:21.264Z,54.20
2022-11-14T00:25:48.373Z,52.07
2022-11-14T00:28:15.652Z,60.53
2022-11-14T00:30:46.004Z,56.93
2022-11-14T00:33:17.167Z,57.17
2022-11-14T00:35:54.548Z,57.00
2022-11-14T00:38:23.126Z,57.03
2022-11-14T00:40:50.234Z,61.87
2022-11-14T00:43:17.262Z,60.87
2022-11-14T00:45:47.641Z,57.80
2022-11-14T00:48:15.099Z,56.83
2022-11-14T00:50:42.581Z,53.63
2022-11-14T00:53:09.533Z,56.73
2022-11-14T00:55:36.391Z,62.17
2022-11-14T00:58:03.335Z,65.83
2022-11-14T01:00:30.452Z,56.77
2022-11-14T01:02:58.316Z,54.47
2022-11-14T01:05:25.758Z,63.63
2022-11-14T01:07:53.013Z,61.03
2022-11-14T01:10:21.194Z,61.53
2022-11-14T01:12:48.343Z,59.50
2022-11-14T01:15:15.227Z,61.07
2022-11-14T01:17:42.036Z,59.80
2022-11-14T01:20:09.152Z,57.10
2022-11-14T01:22:35.896Z,60.70
2022-11-14T01:25:02.659Z,58.13
2022-11-14T01:27:32.842Z,60.27
2022-11-14T01:29:59.641Z,55.97
2022-11-14T01:32:27.791Z,57.17
2022-11-14T01:34:54.818Z,55.20
2022-11-14T01:37:21.669Z,59.80
2022-11-14T01:39:48.621Z,53.13
2022-11-14T01:42:17.468Z,56.37
2022-11-14T01:44:49.133Z,57.13
2022-11-14T01:47:20.897Z,54.43
2022-11-14T01:49:51.544Z,57.50
2022-11-14T01:52:31.611Z,53.27
2022-11-14T01:55:02.983Z,51.03
2022-11-14T01:57:34.385Z,55.10
2022-11-14T02:00:09.265Z,56.83
2022-11-14T02:02:37.003Z,54.33
2022-11-14T02:05:10.696Z,54.90
2022-11-14T02:07:40.169Z,56.37
2022-11-14T02:10:10.515Z,53.80
2022-11-14T02:12:37.932Z,58.30
2022-11-14T02:15:04.961Z,56.63
2022-11-14T02:17:32.890Z,50.93
2022-11-14T02:20:11.687Z,56.90
2022-11-14T02:22:40.945Z,56.57
2022-11-14T02:25:08.918Z,54.70
2022-11-14T02:27:37.904Z,56.27
2022-11-14T02:30:12.215Z,56.67
2022-11-14T02:33:04.345Z,54.10
2022-11-14T02:35:25.947Z,53.37
2022-11-14T02:37:52.770Z,53.23
2022-11-14T02:40:19.681Z,56.37
2022-11-14T02:42:46.492Z,50.10
2022-11-14T02:45:14.022Z,58.57
2022-11-14T02:47:40.801Z,54.10
2022-11-14T02:50:07.776Z,51.83
2022-11-14T02:52:34.532Z,57.33
2022-11-14T02:55:01.250Z,52.90
2022-11-14T02:57:28.010Z,52.77
2022-11-14T02:59:54.973Z,53.17
2022-11-14T03:02:21.915Z,55.37
2022-11-14T03:04:48.642Z,51.33
2022-11-14T03:07:15.583Z,54.33
2022-11-14T03:09:42.344Z,58.67
2022-11-14T03:12:09.563Z,53.47
2022-11-14T03:14:36.411Z,51.97
2022-11-14T03:17:03.392Z,57.80
2022-11-14T03:19:30.386Z,54.80
2022-11-14T03:21:57.122Z,57.17
2022-11-14T03:24:23.851Z,49.50
2022-11-14T03:26:50.596Z,53.37
2022-11-14T03:29:17.385Z,54.57
2022-11-14T03:31:44.352Z,55.40
2022-11-14T03:34:11.461Z,51.77
2022-11-14T03:36:38.488Z,62.13
2022-11-14T03:39:06.205Z,48.07
2022-11-14T03:41:32.937Z,58.60
2022-11-14T03:43:59.660Z,56.80
2022-11-14T03:46:26.428Z,52.47
2022-11-14T03:48:53.205Z,59.60
2022-11-14T03:51:19.991Z,50.10
2022-11-14T03:53:47.203Z,55.50
2022-11-14T03:56:13.953Z,57.10
2022-11-14T03:58:40.648Z,56.23
2022-11-14T04:01:07.838Z,57.63
2022-11-14T04:03:34.673Z,55.10
2022-11-14T04:06:01.448Z,59.90
2022-11-14T04:08:28.449Z,57.50
2022-11-14T04:10:55.343Z,54.80
2022-11-14T04:13:22.047Z,58.13
2022-11-14T04:15:58.021Z,56.70
2022-11-14T04:18:26.064Z,59.90
2022-11-14T04:20:53.585Z,56.57
2022-11-14T04:23:20.340Z,59.63
2022-11-14T04:25:47.461Z,64.73
2022-11-14T04:28:14.503Z,60.10
2022-11-14T04:30:41.819Z,66.27
2022-11-14T04:33:08.761Z,58.23
2022-11-14T04:35:35.526Z,62.03
2022-11-14T04:38:02.457Z,61.07
2022-11-14T04:40:29.452Z,53.90
2022-11-14T04:42:56.217Z,63.63
2022-11-14T04:45:23.010Z,62.57
2022-11-14T04:47:49.804Z,63.73
2022-11-14T04:50:16.532Z,65.10
2022-11-14T04:52:43.287Z,63.70
2022-11-14T04:55:10.087Z,62.33
2022-11-14T04:57:37.080Z,58.17
2022-11-14T05:00:04.648Z,63.17
2022-11-14T05:02:32.867Z,59.67
2022-11-14T05:04:59.675Z,62.23
2022-11-14T05:07:26.557Z,57.43
2022-11-14T05:09:53.358Z,64.80
2022-11-14T05:12:20.192Z,64.00
2022-11-14T05:14:46.950Z,58.10
2022-11-14T05:17:13.777Z,72.30
2022-11-14T05:19:40.494Z,63.43
2022-11-14T05:22:07.208Z,67.47
2022-11-14T05:24:34.087Z,60.30
2022-11-14T05:27:00.847Z,58.13
2022-11-14T05:29:27.567Z,67.93
2022-11-14T05:31:54.321Z,67.20
2022-11-14T05:34:21.070Z,66.80
2022-11-14T05:36:47.822Z,57.00
2022-11-14T05:39:14.574Z,66.80
2022-11-14T05:41:41.397Z,62.97
2022-11-14T05:44:08.422Z,69.63
2022-11-14T05:46:35.479Z,63.27
2022-11-14T05:49:02.582Z,72.10
2022-11-14T05:51:29.640Z,67.07
2022-11-14T05:53:56.397Z,67.03
2022-11-14T05:56:23.274Z,68.93
2022-11-14T05:58:50.061Z,115.20
2022-11-14T06:01:19.916Z,90.43
2022-11-14T06:03:48.395Z,104.20
2022-11-14T06:06:18.621Z,92.17
2022-11-14T06:08:45.707Z,82.30
2022-11-14T06:11:18.227Z,80.73
2022-11-14T06:13:45.831Z,77.20
2022-11-14T06:16:19.705Z,78.87
2022-11-14T06:18:47.075Z,71.93
2022-11-14T06:21:19.638Z,74.13
2022-11-14T06:23:47.077Z,75.97
2022-11-14T06:26:32.217Z,72.70
2022-11-14T06:28:59.767Z,74.47
2022-11-14T06:31:27.197Z,78.10
2022-11-14T06:33:54.161Z,81.07
2022-11-14T06:36:21.019Z,72.47
2022-11-14T06:38:47.788Z,81.03
2022-11-14T06:41:17.306Z,72.73
2022-11-14T06:43:46.700Z,76.33
2022-11-14T06:46:16.541Z,74.57
2022-11-14T06:48:44.319Z,74.17
2022-11-14T06:51:12.935Z,76.83
2022-11-14T06:53:41.001Z,76.70
2022-11-14T06:56:10.798Z,82.10
2022-11-14T06:58:40.728Z,77.47
2022-11-14T07:01:27.725Z,93.47
2022-11-14T07:03:55.074Z,81.23
2022-11-14T07:06:25.425Z,70.20
2022-11-14T07:08:53.247Z,76.03
2022-11-14T07:11:27.780Z,74.10
2022-11-14T07:14:00.230Z,71.97
2022-11-14T07:16:30.498Z,75.03
2022-11-14T07:19:01.707Z,65.30
2022-11-14T07:21:30.355Z,64.23
2022-11-14T07:23:58.238Z,69.90
2022-11-14T07:26:25.451Z,68.73
2022-11-14T07:28:55.474Z,65.23
2022-11-14T07:31:25.231Z,65.53
2022-11-14T07:33:52.117Z,59.63
2022-11-14T07:36:19.031Z,60.37
2022-11-14T07:38:45.944Z,53.70
2022-11-14T07:41:15.165Z,57.77
2022-11-14T07:43:42.493Z,59.53
2022-11-14T07:46:13.009Z,52.87
2022-11-14T07:48:39.996Z,60.27
2022-11-14T07:51:09.786Z,53.73
2022-11-14T07:53:36.575Z,58.30
2022-11-14T07:56:06.078Z,51.53
2022-11-14T07:58:35.331Z,49.90
2022-11-14T08:01:03.103Z,45.20
2022-11-14T08:03:30.417Z,45.40
2022-11-14T08:06:05.376Z,45.90
2022-11-14T08:08:32.626Z,48.30
2022-11-14T08:11:00.701Z,44.70
2022-11-14T08:13:33.485Z,44.73
2022-11-14T08:16:10.748Z,41.33
2022-11-14T08:18:39.601Z,44.10
2022-11-14T08:21:06.955Z,43.93
2022-11-14T08:23:34.979Z,47.90
2022-11-14T08:26:02.042Z,40.93
2022-11-14T08:28:29.720Z,41.70
2022-11-14T08:31:02.341Z,44.93
2022-11-14T08:33:29.835Z,41.03
2022-11-14T08:35:59.872Z,38.37
2022-11-14T08:38:26.931Z,39.20
2022-11-14T08:40:53.834Z,42.20
2022-11-14T08:43:20.648Z,38.63
2022-11-14T08:45:47.508Z,37.17
2022-11-14T08:48:14.534Z,34.33
2022-11-14T08:50:41.369Z,33.13
2022-11-14T08:53:08.304Z,32.80
2022-11-14T08:55:35.214Z,32.53
2022-11-14T08:58:02.184Z,32.17
2022-11-14T09:00:29.275Z,31.00
2022-11-14T09:02:56.264Z,32.03
2022-11-14T09:05:23.377Z,34.47
2022-11-14T09:07:50.296Z,33.03
2022-11-14T09:10:17.508Z,33.27
2022-11-14T09:12:44.456Z,31.90
2022-11-14T09:15:11.980Z,31.23
2022-11-14T09:17:39.037Z,28.40
2022-11-14T09:20:06.624Z,28.60
2022-11-14T09:22:33.887Z,31.00
2022-11-14T09:25:00.643Z,27.63
2022-11-14T09:27:27.901Z,28.10
2022-11-14T09:29:54.684Z,26.63
2022-11-14T09:32:21.455Z,25.40
2022-11-14T09:34:48.347Z,28.50
2022-11-14T09:37:15.294Z,27.07
2022-11-14T09:39:42.122Z,27.73
2022-11-14T09:42:41.974Z,28.47
2022-11-14T09:45:15.185Z,29.87
2022-11-14T09:48:01.423Z,24.63
2022-11-14T09:50:35.828Z,26.97
2022-11-14T09:53:10.570Z,27.87
2022-11-14T09:55:37.677Z,26.80
2022-11-14T09:58:06.368Z,26.80
2022-11-14T10:00:57.000Z,28.37
2022-11-14T10:03:52.204Z,25.67
2022-11-14T10:06:32.301Z,23.70
2022-11-14T10:09:28.868Z,24.87
2022-11-14T10:12:17.658Z,23.87
2022-11-14T10:15:10.353Z,25.77
2022-11-14T10:17:37.230Z,28.07
2022-11-14T10:20:29.813Z,25.40
2022-11-14T10:23:41.765Z,23.13
2022-11-14T10:26:21.191Z,24.47
2022-11-14T10:29:05.941Z,22.37
2022-11-14T10:31:56.283Z,23.07
2022-11-14T10:34:39.259Z,22.67
2022-11-14T10:37:17.088Z,22.90
2022-11-14T10:39:53.794Z,24.00
2022-11-14T10:42:23.607Z,22.00
2022-11-14T10:45:15.506Z,20.37
2022-11-14T10:47:48.633Z,20.40
2022-11-14T10:50:22.152Z,20.23
2022-11-14T10:52:54.674Z,19.53
2022-11-14T10:55:32.052Z,19.83
2022-11-14T10:58:14.666Z,19.53
2022-11-14T11:00:41.471Z,15.93
2022-11-14T11:03:08.516Z,15.20
2022-11-14T11:05:46.698Z,15.03
2022-11-14T11:08:43.394Z,13.80
2022-11-14T11:11:32.665Z,16.83
2022-11-14T11:14:01.138Z,13.33
2022-11-14T11:16:29.954Z,14.33
2022-11-14T11:19:24.897Z,13.27
2022-11-14T11:21:53.002Z,14.67
2022-11-14T11:24:37.226Z,13.27
2022-11-14T11:27:23.465Z,12.83
2022-11-14T11:30:04.475Z,13.10
2022-11-14T11:32:31.479Z,12.20
2022-11-14T11:35:02.538Z,13.17
2022-11-14T11:37:34.417Z,12.17
2022-11-14T11:40:05.213Z,12.37
2022-11-14T11:45:49.171Z,13.43
2022-11-14T11:48:23.925Z,12.70
2022-11-14T11:50:50.695Z,12.43
2022-11-14T11:53:33.492Z,13.57
2022-11-14T11:56:07.201Z,13.63
2022-11-14T11:58:44.400Z,12.77
2022-11-14T12:01:13.466Z,12.47
2022-11-14T12:03:49.078Z,12.40
2022-11-14T12:06:24.616Z,15.77
2022-11-14T12:09:15.385Z,13.50
2022-11-14T12:12:08.322Z,12.00
2022-11-14T12:14:56.877Z,14.20
2022-11-14T12:18:04.032Z,12.73
2022-11-14T12:20:51.670Z,13.17
2022-11-14T12:23:18.381Z,13.27
2022-11-14T12:26:05.628Z,13.57
2022-11-14T12:28:50.624Z,12.70
2022-11-14T12:31:18.829Z,12.33
2022-11-14T12:34:06.040Z,14.50
2022-11-14T12:36:35.214Z,13.40
2022-11-14T12:39:02.710Z,12.87
2022-11-14T12:41:36.554Z,11.77
2022-11-14T12:44:39.866Z,11.30
2022-11-14T12:47:06.866Z,12.60
2022-11-14T12:49:47.326Z,11.47
2022-11-14T12:52:48.934Z,12.73
2022-11-14T12:55:18.706Z,13.50
2022-11-14T12:57:52.419Z,12.23
2022-11-14T13:00:19.624Z,11.97
2022-11-14T13:02:52.873Z,10.63
2022-11-14T13:05:25.756Z,10.87
2022-11-14T13:08:24.456Z,9.37
2022-11-14T13:10:51.367Z,12.43
2022-11-14T13:13:37.148Z,10.47
2022-11-14T13:16:23.622Z,9.83
2022-11-14T13:19:38.045Z,11.57
2022-11-14T13:22:16.785Z,12.90
2022-11-14T13:24:59.058Z,10.67
2022-11-14T13:28:05.406Z,9.50
2022-11-14T13:31:01.443Z,9.17
2022-11-14T13:33:45.365Z,9.27
2022-11-14T13:36:24.777Z,8.30
2022-11-14T13:39:03.287Z,9.17
2022-11-14T13:42:07.584Z,9.30
2022-11-14T13:44:56.175Z,8.73
2022-11-14T13:47:36.845Z,9.00
2022-11-14T13:50:17.196Z,9.57
2022-11-14T13:52:46.462Z,10.17
2022-11-14T13:55:45.057Z,8.80
2022-11-14T13:58:25.047Z,10.90
2022-11-14T14:01:00.806Z,9.40
2022-11-14T14:03:50.293Z,10.07
2022-11-14T14:06:46.984Z,10.53
2022-11-14T14:09:13.972Z,9.03
2022-11-14T14:12:02.229Z,8.93
2022-11-14T14:14:44.129Z,9.50
2022-11-14T14:17:27.817Z,9.87
2022-11-14T14:20:03.025Z,9.83
2022-11-14T14:22:35.838Z,9.77
2022-11-14T14:25:08.638Z,12.07
2022-11-14T14:27:57.177Z,10.67
2022-11-14T14:30:24.408Z,9.83
2022-11-14T14:33:12.840Z,8.53
2022-11-14T14:35:48.759Z,9.70
2022-11-14T14:38:27.464Z,9.43
2022-11-14T14:40:56.053Z,9.17
2022-11-14T14:43:31.977Z,12.00
2022-11-14T14:45:59.272Z,8.87
2022-11-14T14:48:28.752Z,11.33
2022-11-14T14:51:00.141Z,10.00
2022-11-14T14:53:32.908Z,10.03
2022-11-14T14:56:17.094Z,13.00
2022-11-14T14:58:44.646Z,13.33
2022-11-14T15:01:17.617Z,11.07
2022-11-14T15:04:12.237Z,11.40
2022-11-14T15:06:40.145Z,12.67
2022-11-14T15:09:17.387Z,12.23
2022-11-14T15:11:47.326Z,12.13
2022-11-14T15:14:17.810Z,17.57
2022-11-14T15:16:46.964Z,15.27
2022-11-14T15:19:16.784Z,17.23
2022-11-14T15:21:43.973Z,17.93
2022-11-14T15:24:20.992Z,16.83
2022-11-14T15:26:50.157Z,19.03
2022-11-14T15:29:22.058Z,17.53
2022-11-14T15:31:52.626Z,19.07
2022-11-14T15:34:37.481Z,22.13
2022-11-14T15:37:10.426Z,14.97
2022-11-14T15:39:37.917Z,17.83
2022-11-14T15:42:21.160Z,17.50
2022-11-14T15:44:49.051Z,14.57
2022-11-14T15:47:27.692Z,13.47
2022-11-14T15:50:05.531Z,12.83
2022-11-14T15:52:36.527Z,15.10
2022-11-14T15:55:04.603Z,15.10
2022-11-14T15:57:32.259Z,12.87
2022-11-14T15:59:58.969Z,15.93
2022-11-14T16:02:29.966Z,12.53
2022-11-14T16:04:58.950Z,13.77
2022-11-14T16:07:26.212Z,14.40
2022-11-14T16:09:53.126Z,12.87
2022-11-14T16:12:20.054Z,14.70
2022-11-14T16:14:46.915Z,13.47
2022-11-14T16:17:16.098Z,15.83
2022-11-14T16:19:43.511Z,14.07
2022-11-14T16:22:17.412Z,11.70
2022-11-14T16:24:44.324Z,12.93
2022-11-14T16:27:11.885Z,14.13
2022-11-14T16:29:38.946Z,13.53
2022-11-14T16:32:05.894Z,11.77
2022-11-14T16:34:32.697Z,12.40
2022-11-14T16:37:02.016Z,14.00
2022-11-14T16:39:29.317Z,15.00
2022-11-14T16:42:03.012Z,13.70
2022-11-14T16:44:33.432Z,13.97
2022-11-14T16:47:04.168Z,14.17
2022-11-14T16:49:31.134Z,14.53
2022-11-14T16:52:03.064Z,13.27
2022-11-14T16:54:29.975Z,14.77
2022-11-14T16:56:57.525Z,16.40
2022-11-14T16:59:24.408Z,16.40
2022-11-14T17:01:51.439Z,13.40
2022-11-14T17:04:18.205Z,17.20
2022-11-14T17:06:45.220Z,13.90
2022-11-14T17:09:13.385Z,17.23
2022-11-14T17:11:40.246Z,15.80
2022-11-14T17:14:07.312Z,19.60
2022-11-14T17:16:34.282Z,50.50
2022-11-14T17:19:01.423Z,20.50
2022-11-14T17:21:28.236Z,19.60
2022-11-14T17:23:57.129Z,20.70
2022-11-14T17:26:24.382Z,18.93
2022-11-14T17:28:51.276Z,14.73
2022-11-14T17:31:18.355Z,14.53
2022-11-14T17:33:54.378Z,16.03
2022-11-14T17:36:23.349Z,18.10
2022-11-14T17:38:50.259Z,17.00
2022-11-14T17:41:17.396Z,16.13
2022-11-14T17:43:44.955Z,14.37
2022-11-14T17:46:16.102Z,14.20
2022-11-14T17:48:44.635Z,10.17
2022-11-14T17:51:13.502Z,10.57
2022-11-14T17:53:41.027Z,10.63
2022-11-14T17:56:09.745Z,10.47
2022-11-14T17:58:36.568Z,10.07
2022-11-14T18:01:12.737Z,11.00
2022-11-14T18:03:39.793Z,9.57
2022-11-14T18:06:11.740Z,10.23
2022-11-14T18:08:39.006Z,11.30
2022-11-14T18:11:08.043Z,8.30
2022-11-14T18:13:34.973Z,9.40
2022-11-14T18:16:09.111Z,8.27
2022-11-14T18:18:36.919Z,10.33
2022-11-14T18:21:12.167Z,14.07
2022-11-14T18:23:39.050Z,18.70
2022-11-14T18:26:16.969Z,14.30
2022-11-14T18:28:44.434Z,14.90
2022-11-14T18:31:12.224Z,13.60
2022-11-14T18:33:40.392Z,11.33
2022-11-14T18:36:13.565Z,12.70
2022-11-14T18:38:41.314Z,11.27
2022-11-14T18:41:21.148Z,11.63
2022-11-14T18:43:48.835Z,15.23
2022-11-14T18:46:18.340Z,11.70
2022-11-14T18:48:47.586Z,12.27
2022-11-14T18:51:20.764Z,11.93
2022-11-14T18:53:48.161Z,13.23
2022-11-14T18:56:17.749Z,11.97
2022-11-14T18:58:45.613Z,11.83
2022-11-14T19:01:23.999Z,11.73
2022-11-14T19:04:02.011Z,12.57
2022-11-14T19:06:31.799Z,11.67
2022-11-14T19:09:00.123Z,11.17
2022-11-14T19:11:45.432Z,10.53
2022-11-14T19:14:12.892Z,14.23
2022-11-14T19:16:39.735Z,15.40
2022-11-14T19:19:07.539Z,15.70
2022-11-14T19:21:34.783Z,15.57
2022-11-14T19:24:03.783Z,13.23
2022-11-14T19:26:31.320Z,14.40
2022-11-14T19:29:06.185Z,15.80
2022-11-14T19:31:33.337Z,17.07
2022-11-14T19:34:00.591Z,12.67
2022-11-14T19:36:57.848Z,13.37
2022-11-14T19:39:14.688Z,12.83
2022-11-14T19:41:41.583Z,14.93
2022-11-14T19:44:08.632Z,13.63
2022-11-14T19:46:36.795Z,14.73
2022-11-14T19:49:04.944Z,13.03
2022-11-14T19:51:32.940Z,14.40
2022-11-14T19:54:01.724Z,12.33
2022-11-14T19:56:28.691Z,14.23
2022-11-14T19:58:56.631Z,16.40
2022-11-14T20:01:28.549Z,12.87
2022-11-14T20:04:00.846Z,13.90
2022-11-14T20:06:30.151Z,17.00
2022-11-14T20:08:58.455Z,14.70
2022-11-14T20:11:28.916Z,12.60
2022-11-14T20:13:56.871Z,13.03
2022-11-14T20:16:27.950Z,13.10
2022-11-14T20:18:59.044Z,13.20
2022-11-14T20:21:28.274Z,14.40
2022-11-14T20:23:55.295Z,14.23
2022-11-14T20:26:23.673Z,13.80
2022-11-14T20:28:52.929Z,15.07
2022-11-14T20:31:23.178Z,13.97
2022-11-14T20:33:52.916Z,16.53
2022-11-14T20:36:25.264Z,13.20
2022-11-14T20:38:53.057Z,9.63
2022-11-14T20:41:21.154Z,9.67
2022-11-14T20:43:48.397Z,7.80
2022-11-14T20:46:17.469Z,8.07
2022-11-14T20:48:45.422Z,9.83
2022-11-14T20:51:23.955Z,7.70
2022-11-14T20:53:53.044Z,6.90
2022-11-14T20:56:20.875Z,8.03
2022-11-14T20:58:51.723Z,7.50
2022-11-14T21:01:19.303Z,9.17
2022-11-14T21:03:47.171Z,9.53
2022-11-14T21:06:15.559Z,10.47
2022-11-14T21:08:43.243Z,8.23
2022-11-14T21:11:14.392Z,8.20
2022-11-14T21:13:56.909Z,7.77
2022-11-14T21:16:27.345Z,8.83
2022-11-14T21:18:55.246Z,8.83
2022-11-14T21:21:25.106Z,9.07
2022-11-14T21:23:52.415Z,9.13
2022-11-14T21:26:26.515Z,10.53
2022-11-14T21:28:56.021Z,11.37
2022-11-14T21:31:24.972Z,13.37
2022-11-14T21:33:55.194Z,9.57
2022-11-14T21:36:43.793Z,12.17
2022-11-14T21:39:15.503Z,12.00
2022-11-14T21:41:43.661Z,9.10
2022-11-14T21:44:13.219Z,10.20
2022-11-14T21:46:41.220Z,9.27
2022-11-14T21:49:09.078Z,8.90
2022-11-14T21:51:36.161Z,9.13
2022-11-14T21:54:03.205Z,10.20
2022-11-14T21:56:32.098Z,9.97
2022-11-14T21:59:12.911Z,12.43
2022-11-14T22:02:04.186Z,9.23
2022-11-14T22:04:31.953Z,9.17
2022-11-14T22:07:01.167Z,11.50
2022-11-14T22:09:29.147Z,9.37
2022-11-14T22:11:56.848Z,11.20
2022-11-14T22:14:23.957Z,11.47
2022-11-14T22:16:51.261Z,11.60
2022-11-14T22:19:18.950Z,12.10
2022-11-14T22:21:45.998Z,9.17
2022-11-14T22:24:12.789Z,9.63
2022-11-14T22:26:42.827Z,12.47
2022-11-14T22:29:09.828Z,10.73
2022-11-14T22:31:38.194Z,12.10
2022-11-14T22:34:05.361Z,11.50
2022-11-14T22:36:33.380Z,10.53
2022-11-14T22:39:00.429Z,11.27
2022-11-14T22:41:33.448Z,9.77
2022-11-14T22:44:01.154Z,9.80
2022-11-14T22:46:28.600Z,10.90
2022-11-14T22:48:55.850Z,10.63
2022-11-14T22:51:24.965Z,11.03
2022-11-14T22:53:54.252Z,10.87
2022-11-14T22:56:24.308Z,10.40
2022-11-14T22:58:51.631Z,10.23
2022-11-14T23:01:21.233Z,10.80
2022-11-14T23:03:52.607Z,10.03
2022-11-14T23:06:19.427Z,9.87
2022-11-14T23:08:46.641Z,8.27
2022-11-14T23:11:16.598Z,8.00
2022-11-14T23:13:48.765Z,8.60
2022-11-14T23:16:18.601Z,8.17
2022-11-14T23:18:53.197Z,9.40
2022-11-14T23:21:29.186Z,8.47
2022-11-14T23:24:01.249Z,7.43
2022-11-14T23:26:30.169Z,8.33
2022-11-14T23:28:57.348Z,7.50
2022-11-14T23:31:25.478Z,13.83
2022-11-14T23:33:54.717Z,6.87
2022-11-14T23:36:22.024Z,7.80
2022-11-14T23:38:48.950Z,7.57
2022-11-14T23:41:18.379Z,6.73
2022-11-14T23:43:45.818Z,7.90
2022-11-14T23:46:12.856Z,7.93
2022-11-14T23:48:39.812Z,9.30
2022-11-14T23:51:06.669Z,7.03
2022-11-14T23:53:33.679Z,9.77
2022-11-14T23:56:02.011Z,7.83
2022-11-14T23:58:30.035Z,11.47
